Time;durP1;ratioP1;P1;durP2;ratioP2;P2;SDS_P1;SDS_P2;PMS_P1;PMS_P2;Temp;Humidity;BMP_temperature;BMP_pressure;BME280_temperature;BME280_humidity;BME280_pressure;Samples;Min_cycle;Max_cycle;Signal;HPM_P1;HPM_P2
2023/09/14 00:00:11;;;;;;;4.17;3.60;;;22.60;86.60;22.00;96777.00;;;;5096310;28;20288;-79
2023/09/14 00:02:38;;;;;;;3.93;3.53;;;22.50;86.40;21.90;96777.00;;;;5094007;28;20229;-79
2023/09/14 00:05:09;;;;;;;3.90;3.50;;;22.50;86.50;21.90;96776.00;;;;5092842;28;20200;-80
2023/09/14 00:07:36;;;;;;;3.63;3.33;;;22.50;86.30;21.90;96774.00;;;;5092308;28;20661;-79
2023/09/14 00:10:03;;;;;;;3.90;3.40;;;22.50;86.30;21.90;96774.00;;;;5092633;28;20201;-79
2023/09/14 00:12:30;;;;;;;3.43;3.23;;;22.50;86.20;21.90;96773.00;;;;5094092;28;20203;-80
2023/09/14 00:14:57;;;;;;;3.43;3.13;;;22.50;86.30;21.80;96772.00;;;;5093449;28;20202;-80
2023/09/14 00:17:25;;;;;;;3.57;3.37;;;22.50;86.20;21.80;96769.00;;;;5094905;28;20691;-79
2023/09/14 00:19:52;;;;;;;3.50;3.20;;;22.40;86.20;21.80;96769.00;;;;5095530;28;20660;-79
2023/09/14 00:22:21;;;;;;;3.60;3.30;;;22.40;86.40;21.80;96775.00;;;;5093971;28;20230;-80
2023/09/14 00:24:48;;;;;;;3.90;3.60;;;22.40;86.40;21.70;96772.00;;;;5095403;28;20285;-79
2023/09/14 00:27:15;;;;;;;3.80;3.50;;;22.40;86.40;21.70;96766.00;;;;5095380;28;20797;-80
2023/09/14 00:29:42;;;;;;;3.87;3.50;;;22.40;86.50;21.70;96772.00;;;;5095365;28;20200;-79
2023/09/14 00:32:09;;;;;;;4.20;3.90;;;22.30;86.50;21.70;96764.00;;;;5094330;28;20674;-79
2023/09/14 00:34:36;;;;;;;4.43;4.13;;;22.30;86.60;21.70;96766.00;;;;5094868;28;20199;-79
2023/09/14 00:37:04;;;;;;;4.17;3.80;;;22.30;86.60;21.70;96758.00;;;;5095098;28;20707;-79
2023/09/14 00:39:33;;;;;;;4.57;4.27;;;22.30;86.70;21.70;96760.00;;;;5095025;28;20229;-79
2023/09/14 00:42:00;;;;;;;3.77;3.47;;;22.30;86.80;21.70;96760.00;;;;5094399;28;20241;-79
2023/09/14 00:44:27;;;;;;;3.90;3.60;;;22.30;87.10;21.70;96760.00;;;;5095477;28;20199;-79
2023/09/14 00:46:54;;;;;;;4.83;4.43;;;22.30;87.10;21.70;96752.00;;;;5095463;28;20234;-80
2023/09/14 00:49:22;;;;;;;4.17;3.83;;;22.30;87.20;21.70;96759.00;;;;5095018;28;20704;-79
2023/09/14 00:51:49;;;;;;;4.40;3.90;;;22.30;87.20;21.70;96762.00;;;;5095059;28;20203;-79
2023/09/14 00:54:17;;;;;;;3.97;3.67;;;22.30;87.10;21.70;96759.00;;;;5094163;28;20226;-79
2023/09/14 00:56:46;;;;;;;4.00;3.70;;;22.30;87.00;21.70;96770.00;;;;5094806;28;20223;-79
2023/09/14 00:59:14;;;;;;;3.73;3.43;;;22.30;86.80;21.70;96774.00;;;;5093490;28;20294;-79
2023/09/14 01:01:41;;;;;;;3.70;3.40;;;22.30;87.00;21.70;96769.00;;;;5089603;28;20231;-79
2023/09/14 01:04:08;;;;;;;3.97;3.67;;;22.30;87.10;21.70;96771.00;;;;5088267;28;20225;-80
2023/09/14 01:06:36;;;;;;;4.53;4.13;;;22.30;87.10;21.70;96765.00;;;;5087562;28;20293;-79
2023/09/14 01:09:05;;;;;;;3.70;3.40;;;22.30;86.90;21.70;96756.00;;;;5089343;28;20190;-79
2023/09/14 01:11:32;;;;;;;4.33;3.93;;;22.30;86.90;21.60;96755.00;;;;5082137;28;20203;-79
2023/09/14 01:14:14;;;;;;;4.20;3.80;;;22.30;86.90;21.60;96753.00;;;;5093586;28;20192;-79
2023/09/14 01:16:49;;;;;;;4.47;3.93;;;22.30;86.70;21.60;96753.00;;;;5108660;28;20928;-79
2023/09/14 01:19:41;;;;;;;4.20;3.80;;;22.30;86.70;21.60;96755.00;;;;5093041;28;20196;-79
2023/09/14 01:22:34;;;;;;;3.80;3.60;;;22.20;86.40;21.60;96752.00;;;;5091335;28;20216;-79
2023/09/14 01:25:11;;;;;;;3.80;3.50;;;22.20;86.20;21.60;96760.00;;;;5092744;28;20207;-79
2023/09/14 01:27:40;;;;;;;4.20;3.50;;;22.20;86.60;21.60;96759.00;;;;5109690;28;20202;-80
2023/09/14 01:30:09;;;;;;;3.63;3.33;;;22.20;86.50;21.50;96755.00;;;;5087810;28;20193;-79
2023/09/14 01:32:36;;;;;;;4.67;4.20;;;22.20;86.40;21.50;96763.00;;;;5094399;28;20194;-79
2023/09/14 01:35:04;;;;;;;4.40;4.10;;;22.20;86.30;21.50;96763.00;;;;5094782;28;20198;-80
2023/09/14 01:37:33;;;;;;;4.23;3.93;;;22.20;86.30;21.50;96769.00;;;;5076921;28;20305;-80
2023/09/14 01:40:00;;;;;;;3.73;3.50;;;22.20;86.20;21.50;96772.00;;;;5095241;28;20223;-80
2023/09/14 01:42:29;;;;;;;4.07;3.70;;;22.10;86.10;21.40;96768.00;;;;5086119;28;20560;-80
2023/09/14 01:44:58;;;;;;;4.30;4.00;;;22.10;86.30;21.40;96770.00;;;;5094373;28;20195;-79
2023/09/14 01:47:25;;;;;;;4.00;3.70;;;22.10;86.20;21.40;96775.00;;;;5089939;28;20196;-80
2023/09/14 01:49:52;;;;;;;3.67;3.37;;;22.10;86.40;21.40;96768.00;;;;5091706;28;20199;-80
2023/09/14 01:52:20;;;;;;;4.17;3.40;;;22.10;86.30;21.40;96770.00;;;;5074730;28;20204;-80
2023/09/14 01:54:47;;;;;;;3.70;3.43;;;22.00;86.10;21.30;96768.00;;;;5072985;28;20196;-80
2023/09/14 01:57:14;;;;;;;4.47;4.17;;;22.00;86.00;21.30;96762.00;;;;5079045;28;20598;-80
2023/09/14 01:59:41;;;;;;;3.90;3.60;;;22.00;85.90;21.30;96761.00;;;;5089217;28;20202;-80
2023/09/14 02:02:10;;;;;;;4.20;3.90;;;22.00;85.60;21.20;96760.00;;;;5093987;28;20219;-80
2023/09/14 02:04:38;;;;;;;3.70;3.50;;;21.90;85.50;21.20;96765.00;;;;5085412;28;20294;-80
2023/09/14 02:07:05;;;;;;;4.67;3.90;;;21.90;86.20;21.10;96764.00;;;;5082151;28;20780;-80
2023/09/14 02:09:32;;;;;;;5.03;4.07;;;21.80;85.40;21.10;96761.00;;;;5083644;28;20253;-80
2023/09/14 02:11:59;;;;;;;4.40;4.10;;;21.80;85.30;21.10;96768.00;;;;5077229;28;20199;-80
2023/09/14 02:14:26;;;;;;;3.90;3.60;;;21.80;85.30;21.00;96768.00;;;;5085980;28;20283;-80
2023/09/14 02:16:54;;;;;;;4.00;3.70;;;21.70;85.30;21.00;96769.00;;;;5093954;28;20207;-80
2023/09/14 02:19:22;;;;;;;4.00;3.70;;;21.70;85.50;21.00;96770.00;;;;5091069;28;20195;-79
2023/09/14 02:21:49;;;;;;;4.20;3.90;;;21.60;85.30;20.90;96772.00;;;;5080100;28;20573;-80
2023/09/14 02:24:17;;;;;;;4.43;4.03;;;21.60;85.40;20.90;96772.00;;;;5093433;28;20545;-80
2023/09/14 02:26:44;;;;;;;5.80;4.00;;;21.60;85.40;20.80;96778.00;;;;5087931;28;20212;-79
2023/09/14 02:29:11;;;;;;;4.70;4.20;;;21.60;85.30;20.80;96776.00;;;;5090541;28;20300;-80
2023/09/14 02:31:38;;;;;;;3.80;3.50;;;21.50;86.10;20.80;96781.00;;;;5084965;28;20727;-79
2023/09/14 02:34:05;;;;;;;4.30;3.90;;;21.50;85.50;20.80;96775.00;;;;5087055;28;20236;-80
2023/09/14 02:36:34;;;;;;;3.93;3.63;;;21.50;85.60;20.80;96782.00;;;;5084363;28;20255;-79
2023/09/14 02:39:01;;;;;;;4.17;3.83;;;21.40;85.70;20.70;96778.00;;;;5088584;28;20607;-80
2023/09/14 02:41:28;;;;;;;5.00;4.67;;;21.40;85.90;20.70;96783.00;;;;5085074;28;20271;-80
2023/09/14 02:43:56;;;;;;;4.23;3.93;;;21.40;86.30;20.70;96787.00;;;;5092008;28;20227;-80
2023/09/14 02:46:23;;;;;;;4.90;4.50;;;21.40;86.60;20.70;96789.00;;;;5087822;28;20294;-80
2023/09/14 02:48:50;;;;;;;4.57;4.17;;;21.40;87.00;20.80;96790.00;;;;5091251;28;20204;-80
2023/09/14 02:51:17;;;;;;;4.97;4.47;;;21.40;87.80;20.80;96787.00;;;;5078757;28;20199;-80
2023/09/14 02:53:46;;;;;;;4.67;4.23;;;21.40;87.30;20.80;96794.00;;;;5091759;28;20192;-80
2023/09/14 02:56:14;;;;;;;4.57;4.27;;;21.40;87.40;20.80;96786.00;;;;5087005;28;20247;-80
2023/09/14 02:58:41;;;;;;;4.10;3.70;;;21.40;87.50;20.80;96789.00;;;;5074374;28;20202;-80
2023/09/14 03:01:09;;;;;;;4.97;4.57;;;21.40;87.60;20.80;96778.00;;;;5090993;28;20195;-80
2023/09/14 03:03:37;;;;;;;4.70;4.30;;;21.50;87.50;20.90;96778.00;;;;5086899;28;20635;-79
2023/09/14 03:06:04;;;;;;;4.97;4.47;;;21.50;87.50;20.90;96781.00;;;;5083166;28;20563;-79
2023/09/14 03:08:32;;;;;;;5.20;4.70;;;21.50;87.60;20.90;96784.00;;;;5087548;28;20210;-79
2023/09/14 03:11:01;;;;;;;6.50;4.60;;;21.50;87.50;20.90;96781.00;;;;5085438;28;20208;-80
2023/09/14 03:13:28;;;;;;;5.27;4.33;;;21.50;87.30;20.90;96787.00;;;;5081377;28;20283;-79
2023/09/14 03:15:57;;;;;;;4.70;4.30;;;21.60;87.60;20.90;96792.00;;;;5086585;28;20208;-80
2023/09/14 03:18:25;;;;;;;4.70;4.30;;;21.50;87.50;20.90;96785.00;;;;5082886;28;20196;-80
2023/09/14 03:20:54;;;;;;;4.73;4.33;;;21.60;87.70;20.90;96794.00;;;;5080728;28;20253;-79
2023/09/14 03:23:22;;;;;;;4.97;4.57;;;21.60;87.70;21.00;96792.00;;;;5086078;28;20222;-79
2023/09/14 03:25:50;;;;;;;4.83;4.53;;;21.60;87.60;21.00;96789.00;;;;5087021;28;20208;-80
2023/09/14 03:28:19;;;;;;;5.00;4.57;;;21.60;87.60;21.00;96793.00;;;;5087460;28;20199;-79
2023/09/14 03:30:46;;;;;;;4.97;4.57;;;21.60;87.50;21.00;96803.00;;;;5090734;28;20192;-79
2023/09/14 03:33:13;;;;;;;4.53;4.23;;;21.60;87.40;21.00;96798.00;;;;5087439;28;20216;-79
2023/09/14 03:35:42;;;;;;;5.23;4.83;;;21.60;87.40;21.00;96786.00;;;;5087096;28;20218;-79
2023/09/14 03:38:09;;;;;;;5.37;4.87;;;21.60;87.30;21.00;96803.00;;;;5080741;28;20195;-79
2023/09/14 03:40:36;;;;;;;5.23;4.83;;;21.60;87.30;21.00;96803.00;;;;5082169;28;20624;-79
2023/09/14 03:43:04;;;;;;;5.03;4.63;;;21.60;87.30;21.00;96805.00;;;;5087233;28;20225;-80
2023/09/14 03:45:32;;;;;;;4.50;4.10;;;21.70;87.30;21.00;96803.00;;;;5087017;28;20300;-80
2023/09/14 03:47:59;;;;;;;4.50;4.10;;;21.70;87.20;21.00;96808.00;;;;5083655;28;20203;-80
2023/09/14 03:50:27;;;;;;;5.30;4.80;;;21.60;87.10;21.00;96809.00;;;;5080704;28;20192;-80
2023/09/14 03:52:54;;;;;;;4.73;4.33;;;21.60;87.10;21.00;96802.00;;;;5085337;28;20199;-80
2023/09/14 03:55:21;;;;;;;4.90;4.50;;;21.60;87.10;21.00;96802.00;;;;5087443;28;20229;-80
2023/09/14 03:57:48;;;;;;;4.90;4.50;;;21.60;87.80;21.00;96810.00;;;;5082957;28;20662;-79
2023/09/14 04:00:16;;;;;;;4.37;3.87;;;21.60;87.00;21.00;96815.00;;;;5082817;28;20249;-80
2023/09/14 04:02:45;;;;;;;4.47;4.17;;;21.60;87.00;21.00;96818.00;;;;5075365;28;20809;-79
2023/09/14 04:05:15;;;;;;;5.00;4.50;;;21.60;87.00;21.00;96822.00;;;;5084921;28;20596;-80
2023/09/14 04:07:42;;;;;;;5.60;5.10;;;21.60;87.00;21.00;96817.00;;;;5084426;28;20203;-80
2023/09/14 04:10:10;;;;;;;6.60;5.90;;;21.60;87.00;21.00;96824.00;;;;5083583;28;20202;-80
2023/09/14 04:12:39;;;;;;;5.63;5.13;;;21.60;86.90;21.00;96820.00;;;;5078536;28;20224;-79
2023/09/14 04:15:08;;;;;;;5.87;5.37;;;21.60;86.70;21.00;96827.00;;;;5086866;28;20570;-80
2023/09/14 04:17:35;;;;;;;5.60;5.10;;;21.60;86.60;21.00;96823.00;;;;5086134;28;20204;-80
2023/09/14 04:20:10;;;;;;;5.73;5.23;;;21.60;86.70;21.00;96823.00;;;;5085849;28;20199;-80
2023/09/14 04:22:38;;;;;;;5.57;5.00;;;21.60;86.60;20.90;96820.00;;;;5087239;28;20200;-80
2023/09/14 04:25:07;;;;;;;5.93;5.43;;;21.60;86.60;20.90;96828.00;;;;5091907;28;20700;-79
2023/09/14 04:27:34;;;;;;;6.97;6.27;;;21.60;86.60;20.90;96832.00;;;;5087047;28;20200;-79
2023/09/14 04:30:01;;;;;;;6.90;6.20;;;21.60;86.50;20.90;96834.00;;;;5094417;28;20635;-79
2023/09/14 04:32:28;;;;;;;6.23;5.73;;;21.60;86.50;20.90;96841.00;;;;5087158;28;20204;-79
2023/09/14 04:34:55;;;;;;;9.20;5.80;;;21.60;86.40;20.90;96837.00;;;;5084163;28;20722;-79
2023/09/14 04:37:24;;;;;;;6.33;5.83;;;21.60;86.00;20.90;96837.00;;;;5092805;28;20576;-80
2023/09/14 04:39:51;;;;;;;8.43;6.13;;;21.60;85.80;20.80;96846.00;;;;5086110;28;20203;-79
2023/09/14 04:42:18;;;;;;;6.90;6.13;;;21.50;86.60;20.80;96843.00;;;;5083285;28;20580;-80
2023/09/14 04:44:49;;;;;;;6.73;6.13;;;21.50;85.90;20.80;96845.00;;;;5092538;28;20306;-80
2023/09/14 04:47:17;;;;;;;7.00;6.33;;;21.50;86.00;20.80;96851.00;;;;5097439;28;20626;-80
2023/09/14 04:49:44;;;;;;;7.13;6.53;;;21.50;86.00;20.80;96848.00;;;;5100030;28;20191;-81
2023/09/14 04:52:12;;;;;;;6.83;6.23;;;21.50;86.00;20.80;96859.00;;;;5096110;28;20187;-80
2023/09/14 04:54:41;;;;;;;7.80;6.80;;;21.40;85.90;20.80;96852.00;;;;5082564;28;20208;-79
2023/09/14 04:57:08;;;;;;;7.60;6.90;;;21.40;85.90;20.80;96859.00;;;;5093667;28;20215;-80
2023/09/14 04:59:35;;;;;;;7.23;6.53;;;21.40;85.90;20.70;96845.00;;;;5085915;28;20199;-79
2023/09/14 05:02:02;;;;;;;7.10;6.40;;;21.40;85.90;20.70;96852.00;;;;5094089;28;20829;-80
2023/09/14 05:04:29;;;;;;;9.20;6.80;;;21.40;86.00;20.70;96854.00;;;;5091395;28;20247;-80
2023/09/14 05:06:56;;;;;;;8.50;6.90;;;21.30;86.00;20.70;96862.00;;;;5089980;28;20298;-80
2023/09/14 05:09:24;;;;;;;10.27;7.37;;;21.30;85.90;20.70;96861.00;;;;5094446;28;20188;-80
2023/09/14 05:11:52;;;;;;;7.87;7.07;;;21.30;85.60;20.70;96859.00;;;;5081900;28;20725;-80
2023/09/14 05:14:19;;;;;;;9.43;8.43;;;21.30;85.40;20.60;96859.00;;;;5086732;28;20656;-80
2023/09/14 05:16:47;;;;;;;9.17;7.87;;;21.30;85.60;20.60;96856.00;;;;5088375;28;20215;-82
2023/09/14 05:19:14;;;;;;;9.53;8.53;;;21.30;85.60;20.60;96862.00;;;;5093885;28;20278;-81
2023/09/14 05:21:41;;;;;;;9.33;8.33;;;21.30;85.70;20.60;96861.00;;;;5088591;28;20551;-82
2023/09/14 05:24:08;;;;;;;11.63;9.17;;;21.20;85.70;20.60;96857.00;;;;5088560;28;20214;-82
2023/09/14 05:26:36;;;;;;;11.33;9.73;;;21.20;85.80;20.60;96866.00;;;;5087139;28;20581;-82
2023/09/14 05:29:04;;;;;;;11.63;9.27;;;21.20;85.80;20.60;96870.00;;;;5092439;28;20299;-83
2023/09/14 05:31:31;;;;;;;14.30;9.67;;;21.20;85.50;20.60;96872.00;;;;5089412;28;20202;-83
2023/09/14 05:33:58;;;;;;;15.23;9.57;;;21.20;85.70;20.60;96878.00;;;;5093676;28;20199;-82
2023/09/14 05:36:26;;;;;;;13.30;9.87;;;21.20;85.80;20.60;96871.00;;;;5084205;28;20225;-83
2023/09/14 05:38:53;;;;;;;15.33;10.37;;;21.20;85.90;20.60;96874.00;;;;5086469;28;20737;-82
2023/09/14 05:41:20;;;;;;;14.97;10.30;;;21.20;86.70;20.60;96871.00;;;;5091328;28;20282;-81
2023/09/14 05:43:47;;;;;;;12.53;10.07;;;21.20;86.00;20.60;96871.00;;;;5089996;28;20277;-81
2023/09/14 05:46:16;;;;;;;12.33;10.27;;;21.20;86.10;20.60;96874.00;;;;5085226;28;20775;-81
2023/09/14 05:48:43;;;;;;;12.90;10.20;;;21.20;86.80;20.60;96877.00;;;;5094030;28;20199;-80
2023/09/14 05:51:13;;;;;;;14.97;11.07;;;21.20;86.20;20.60;96875.00;;;;5093206;28;20202;-80
2023/09/14 05:53:40;;;;;;;12.10;10.20;;;21.20;87.00;20.60;96876.00;;;;5092355;28;20195;-82
2023/09/14 05:56:07;;;;;;;15.67;10.73;;;21.20;86.10;20.60;96873.00;;;;5089076;28;20223;-80
2023/09/14 05:58:34;;;;;;;14.73;11.73;;;21.20;86.10;20.60;96878.00;;;;5086471;28;20282;-81
2023/09/14 06:01:03;;;;;;;14.47;10.57;;;21.20;86.00;20.60;96879.00;;;;5089615;28;20202;-81
2023/09/14 06:03:33;;;;;;;13.97;10.33;;;21.20;86.10;20.60;96884.00;;;;5086357;28;20741;-81
2023/09/14 06:06:01;;;;;;;13.73;10.87;;;21.30;86.00;20.60;96886.00;;;;5096112;28;20239;-81
2023/09/14 06:08:28;;;;;;;14.57;11.23;;;21.30;86.30;20.60;96887.00;;;;5090869;28;20565;-81
2023/09/14 06:10:55;;;;;;;16.30;11.07;;;21.30;86.20;20.60;96891.00;;;;5096918;28;20650;-80
2023/09/14 06:13:22;;;;;;;16.13;11.43;;;21.30;86.40;20.60;96898.00;;;;5092256;28;20204;-81
2023/09/14 06:15:50;;;;;;;14.53;11.30;;;21.30;86.40;20.60;96900.00;;;;5095385;28;20597;-82
2023/09/14 06:18:18;;;;;;;14.37;10.40;;;21.30;86.10;20.60;96899.00;;;;5092428;28;20195;-81
2023/09/14 06:20:47;;;;;;;15.37;11.17;;;21.30;86.10;20.70;96903.00;;;;5089917;28;20786;-82
2023/09/14 06:23:14;;;;;;;15.93;11.07;;;21.30;87.10;20.70;96900.00;;;;5087577;28;20211;-82
2023/09/14 06:25:42;;;;;;;13.33;11.10;;;21.30;86.60;20.70;96903.00;;;;5090505;28;20704;-82
2023/09/14 06:28:11;;;;;;;14.43;11.00;;;21.30;86.80;20.70;96901.00;;;;5090705;28;20205;-82
2023/09/14 06:30:38;;;;;;;15.17;11.73;;;21.30;86.80;20.70;96898.00;;;;5090340;28;20195;-82
2023/09/14 06:33:07;;;;;;;16.27;11.67;;;21.40;86.60;20.70;96909.00;;;;5086760;28;20755;-82
2023/09/14 06:35:35;;;;;;;15.20;11.50;;;21.40;86.40;20.80;96904.00;;;;5086422;28;20238;-82
2023/09/14 06:38:04;;;;;;;14.20;10.70;;;21.40;86.40;20.80;96901.00;;;;5089417;28;20210;-80
2023/09/14 06:40:31;;;;;;;15.97;11.60;;;21.40;86.30;20.80;96900.00;;;;5092086;28;20199;-80
2023/09/14 06:43:05;;;;;;;15.20;11.43;;;21.40;86.20;20.80;96902.00;;;;5093347;28;20196;-82
2023/09/14 06:45:33;;;;;;;14.87;11.53;;;21.40;86.10;20.80;96904.00;;;;5091330;28;20230;-82
2023/09/14 06:48:01;;;;;;;15.97;12.17;;;21.40;86.40;20.80;96906.00;;;;5091271;28;20223;-81
2023/09/14 06:50:29;;;;;;;17.13;11.57;;;21.40;86.40;20.80;96909.00;;;;5083953;28;20631;-81
2023/09/14 06:52:57;;;;;;;14.27;12.13;;;21.50;86.50;20.80;96910.00;;;;5090236;28;20556;-81
2023/09/14 06:55:26;;;;;;;15.80;12.30;;;21.50;86.50;20.80;96909.00;;;;5091188;28;20219;-82
2023/09/14 06:57:53;;;;;;;15.27;11.63;;;21.50;86.20;20.90;96910.00;;;;5095736;28;20198;-81
2023/09/14 07:00:21;;;;;;;17.03;12.33;;;21.50;86.40;20.90;96918.00;;;;5095378;28;20208;-82
2023/09/14 07:02:49;;;;;;;15.20;11.50;;;21.50;86.50;20.90;96916.00;;;;5090899;28;20201;-81
2023/09/14 07:05:16;;;;;;;14.20;11.00;;;21.50;86.50;20.90;96915.00;;;;5091008;28;20722;-81
2023/09/14 07:07:44;;;;;;;16.43;12.10;;;21.50;86.40;21.00;96923.00;;;;5096430;28;20248;-82
2023/09/14 07:10:12;;;;;;;12.77;10.73;;;21.60;86.40;21.00;96916.00;;;;5095399;28;20258;-82
2023/09/14 07:12:41;;;;;;;13.37;10.53;;;21.60;86.40;21.00;96918.00;;;;5086763;28;20196;-82
2023/09/14 07:15:10;;;;;;;14.83;10.57;;;21.60;86.60;21.00;96919.00;;;;5092375;28;20294;-81
2023/09/14 07:17:37;;;;;;;13.83;10.13;;;21.60;86.70;21.00;96925.00;;;;5092585;28;20202;-82
2023/09/14 07:20:06;;;;;;;15.43;11.07;;;21.60;86.90;21.10;96925.00;;;;5091905;28;20198;-82
2023/09/14 07:22:33;;;;;;;12.30;10.23;;;21.70;87.10;21.10;96927.00;;;;5091134;28;20230;-82
2023/09/14 07:25:01;;;;;;;13.80;11.37;;;21.70;87.10;21.10;96924.00;;;;5087185;28;20279;-81
2023/09/14 07:27:28;;;;;;;13.20;10.17;;;21.70;87.10;21.20;96927.00;;;;5088703;28;20218;-81
2023/09/14 07:29:56;;;;;;;13.07;10.60;;;21.80;87.00;21.20;96924.00;;;;5095437;28;20191;-81
2023/09/14 07:32:24;;;;;;;15.37;10.53;;;21.80;87.00;21.20;96925.00;;;;5086270;28;20196;-82
2023/09/14 07:34:51;;;;;;;12.10;9.93;;;21.80;87.20;21.30;96924.00;;;;5084544;28;20200;-81
2023/09/14 07:37:19;;;;;;;12.47;10.57;;;21.90;87.00;21.30;96927.00;;;;5088362;28;20199;-81
2023/09/14 07:39:47;;;;;;;13.60;10.77;;;21.90;86.80;21.30;96934.00;;;;5077681;28;20188;-81
2023/09/14 07:42:15;;;;;;;12.77;10.17;;;21.90;86.50;21.40;96932.00;;;;5078648;28;20195;-81
2023/09/14 07:44:43;;;;;;;11.87;9.50;;;22.00;86.60;21.40;96939.00;;;;5089013;28;20309;-82
2023/09/14 07:47:11;;;;;;;12.97;10.33;;;22.00;86.80;21.40;96939.00;;;;5082358;28;20735;-82
2023/09/14 07:49:39;;;;;;;13.10;10.70;;;22.00;86.80;21.40;96935.00;;;;5092679;28;20600;-81
2023/09/14 07:52:06;;;;;;;11.90;9.40;;;22.10;87.00;21.50;96938.00;;;;5089185;28;20197;-82
2023/09/14 07:54:34;;;;;;;13.07;10.57;;;22.10;86.80;21.50;96937.00;;;;5092283;28;20624;-82
2023/09/14 07:57:02;;;;;;;11.60;9.67;;;22.10;86.40;21.50;96935.00;;;;5090855;28;20208;-82
2023/09/14 07:59:29;;;;;;;13.13;10.27;;;22.10;86.00;21.50;96938.00;;;;5084941;28;20192;-82
2023/09/14 08:01:56;;;;;;;12.43;10.00;;;22.10;86.30;21.60;96940.00;;;;5093553;28;20674;-82
2023/09/14 08:04:25;;;;;;;10.87;9.20;;;22.20;86.50;21.60;96938.00;;;;5097343;28;20286;-82
2023/09/14 08:06:52;;;;;;;12.57;10.83;;;22.20;86.70;21.60;96939.00;;;;5090615;28;20212;-83
2023/09/14 08:09:19;;;;;;;12.70;10.03;;;22.20;86.60;21.60;96943.00;;;;5090382;28;20199;-83
2023/09/14 08:11:46;;;;;;;11.87;10.07;;;22.20;86.50;21.70;96956.00;;;;5090797;28;20287;-82
2023/09/14 08:14:13;;;;;;;12.53;10.27;;;22.30;86.50;21.70;96956.00;;;;5084463;28;20199;-81
2023/09/14 08:16:40;;;;;;;10.77;9.50;;;22.30;86.50;21.70;96953.00;;;;5090914;28;20216;-82
2023/09/14 08:19:08;;;;;;;11.03;9.63;;;22.30;86.60;21.70;96956.00;;;;5089757;28;20682;-83
2023/09/14 08:21:36;;;;;;;11.43;9.87;;;22.30;86.70;21.80;96956.00;;;;5079018;28;20192;-82
2023/09/14 08:24:04;;;;;;;11.93;10.13;;;22.40;86.80;21.80;96957.00;;;;5098576;28;20233;-82
2023/09/14 08:26:32;;;;;;;12.10;9.67;;;22.40;86.80;21.90;96957.00;;;;5098802;28;20226;-82
2023/09/14 08:28:59;;;;;;;11.90;10.07;;;22.40;87.60;21.90;96962.00;;;;5102790;28;20298;-81
2023/09/14 08:31:26;;;;;;;11.97;9.57;;;22.50;87.10;21.90;96960.00;;;;5096942;28;20279;-81
2023/09/14 08:33:56;;;;;;;9.80;8.63;;;22.50;87.10;22.00;96967.00;;;;5091755;28;20198;-82
2023/09/14 08:36:23;;;;;;;11.27;9.17;;;22.50;87.10;22.00;96955.00;;;;5099048;28;20886;-81
2023/09/14 08:38:52;;;;;;;11.53;9.47;;;22.60;87.00;22.10;96955.00;;;;5096726;28;20200;-81
2023/09/14 08:41:29;;;;;;;10.83;9.73;;;22.60;86.90;22.10;96965.00;;;;5104162;28;20766;-81
2023/09/14 08:43:57;;;;;;;10.90;9.63;;;22.60;86.90;22.20;96966.00;;;;5089149;28;20221;-81
2023/09/14 08:46:25;;;;;;;11.20;9.47;;;22.70;87.10;22.20;96968.00;;;;5098438;28;20215;-81
2023/09/14 08:48:56;;;;;;;12.83;10.07;;;22.70;86.80;22.30;96963.00;;;;5094865;28;20201;-81
2023/09/14 08:51:27;;;;;;;11.17;9.50;;;22.80;86.70;22.30;96965.00;;;;5094436;28;20208;-81
2023/09/14 08:53:57;;;;;;;11.10;9.70;;;22.80;86.50;22.40;96964.00;;;;5091651;28;20247;-81
2023/09/14 08:56:26;;;;;;;14.43;11.13;;;22.90;86.20;22.40;96968.00;;;;5092865;28;20225;-81
2023/09/14 08:58:55;;;;;;;10.97;9.63;;;22.90;86.40;22.40;96964.00;;;;5092107;28;20291;-81
2023/09/14 09:01:24;;;;;;;11.17;9.57;;;22.90;85.90;22.50;96973.00;;;;5061827;28;20193;-81
2023/09/14 09:03:51;;;;;;;11.63;10.00;;;23.00;85.30;22.50;96962.00;;;;5090433;28;20625;-81
2023/09/14 09:06:20;;;;;;;10.10;9.03;;;23.00;85.40;22.50;96970.00;;;;5093716;28;20242;-81
2023/09/14 09:08:48;;;;;;;12.13;10.60;;;23.00;85.30;22.50;96972.00;;;;5091306;28;20313;-81
2023/09/14 09:11:16;;;;;;;10.80;9.50;;;23.00;85.40;22.50;96972.00;;;;5089188;28;20191;-81
2023/09/14 09:13:45;;;;;;;11.37;9.07;;;23.00;85.30;22.50;96970.00;;;;5090588;28;20230;-81
2023/09/14 09:16:13;;;;;;;10.67;9.17;;;23.10;85.30;22.60;96968.00;;;;5092666;28;20251;-81
2023/09/14 09:19:03;;;;;;;12.60;10.20;;;23.10;85.20;22.50;96964.00;;;;5096499;28;20192;-82
2023/09/14 09:21:33;;;;;;;11.97;9.23;;;23.10;82.30;22.50;96965.00;;;;5085673;28;20203;-82
2023/09/14 09:24:02;;;;;;;11.30;9.27;;;23.10;83.90;22.50;96971.00;;;;5098781;28;20676;-81
2023/09/14 09:26:35;;;;;;;12.97;9.50;;;23.10;85.20;22.50;96969.00;;;;5095559;28;20243;-82
2023/09/14 09:29:15;;;;;;;12.20;9.87;;;23.10;85.30;22.50;96967.00;;;;5094585;28;20197;-81
2023/09/14 09:31:45;;;;;;;10.60;8.73;;;23.00;84.60;22.60;96966.00;;;;5092721;28;20199;-81
2023/09/14 09:34:14;;;;;;;10.97;9.33;;;23.10;85.20;22.60;96975.00;;;;5099192;28;20196;-81
2023/09/14 09:36:41;;;;;;;10.87;9.20;;;23.10;85.50;22.70;96970.00;;;;5096312;28;20219;-81
2023/09/14 09:39:11;;;;;;;10.87;9.37;;;23.20;85.30;22.70;96964.00;;;;5098588;28;20226;-81
2023/09/14 09:41:41;;;;;;;11.57;9.73;;;23.20;84.50;22.70;96970.00;;;;5098289;28;20194;-81
2023/09/14 09:44:10;;;;;;;10.83;9.03;;;23.20;84.30;22.70;96975.00;;;;5098432;28;20198;-81
2023/09/14 09:46:38;;;;;;;10.80;9.10;;;23.30;84.70;22.80;96973.00;;;;5096768;28;20229;-81
2023/09/14 09:49:18;;;;;;;9.73;8.73;;;23.30;85.00;22.80;96974.00;;;;5093387;28;20201;-81
2023/09/14 09:51:48;;;;;;;9.87;8.43;;;23.30;85.00;22.90;96974.00;;;;5096417;28;20205;-81
2023/09/14 09:54:16;;;;;;;9.77;8.63;;;23.30;85.50;22.90;96974.00;;;;5092919;28;20188;-81
2023/09/14 09:56:44;;;;;;;9.70;8.67;;;23.40;85.80;23.00;96971.00;;;;5075058;28;20214;-81
2023/09/14 09:59:15;;;;;;;9.43;8.40;;;23.40;85.60;23.10;96973.00;;;;5088975;28;20273;-81
2023/09/14 10:01:47;;;;;;;10.47;9.23;;;23.50;85.70;23.10;96970.00;;;;5091123;28;20194;-81
2023/09/14 10:04:16;;;;;;;9.93;8.93;;;23.50;84.50;23.10;96977.00;;;;5092544;28;20222;-81
2023/09/14 10:06:51;;;;;;;10.23;9.17;;;23.60;84.10;23.10;96975.00;;;;5094010;28;20211;-81
2023/09/14 10:09:18;;;;;;;10.33;9.23;;;23.60;83.70;23.20;96974.00;;;;5092675;28;20236;-81
2023/09/14 10:11:51;;;;;;;9.43;8.40;;;23.60;84.60;23.20;96971.00;;;;5090298;28;20284;-81
2023/09/14 10:14:25;;;;;;;10.23;8.73;;;23.60;84.40;23.20;96971.00;;;;5092255;28;20196;-81
2023/09/14 10:16:56;;;;;;;9.57;8.67;;;23.70;84.40;23.30;96967.00;;;;5088491;28;20225;-81
2023/09/14 10:19:26;;;;;;;9.73;8.83;;;23.70;84.10;23.30;96968.00;;;;5088047;28;20587;-81
2023/09/14 10:21:57;;;;;;;10.93;9.83;;;23.70;83.70;23.30;96964.00;;;;5083814;28;20195;-81
2023/09/14 10:24:26;;;;;;;10.17;9.17;;;23.70;82.40;23.20;96962.00;;;;5092885;28;20203;-81
2023/09/14 10:26:56;;;;;;;10.43;9.43;;;23.70;82.30;23.20;96966.00;;;;5089392;28;20440;-81
2023/09/14 10:29:27;;;;;;;11.33;10.23;;;23.70;82.10;23.20;96966.00;;;;5096290;28;20209;-81
2023/09/14 10:31:57;;;;;;;10.53;9.57;;;23.70;82.10;23.20;96966.00;;;;5101453;28;20192;-81
2023/09/14 10:34:29;;;;;;;10.73;9.63;;;23.70;81.40;23.10;96961.00;;;;5091732;28;20274;-81
2023/09/14 10:37:00;;;;;;;9.97;9.07;;;23.70;82.20;23.10;96958.00;;;;5091543;28;20276;-80
2023/09/14 10:39:28;;;;;;;10.60;9.50;;;23.70;82.10;23.10;96966.00;;;;5097814;28;20199;-81
2023/09/14 10:41:57;;;;;;;9.27;8.43;;;23.70;81.80;23.10;96958.00;;;;5085607;28;20205;-81
2023/09/14 10:44:24;;;;;;;9.40;8.60;;;23.60;81.60;23.10;96960.00;;;;5087733;28;20667;-81
2023/09/14 10:46:55;;;;;;;9.37;8.47;;;23.60;82.10;23.00;96961.00;;;;5090266;28;20222;-81
2023/09/14 10:49:28;;;;;;;9.47;8.57;;;23.60;81.90;23.00;96966.00;;;;5091373;28;20205;-81
2023/09/14 10:51:56;;;;;;;9.93;8.93;;;23.60;81.60;23.00;96965.00;;;;5092419;28;20200;-81
2023/09/14 10:54:26;;;;;;;9.83;8.93;;;23.60;81.30;23.00;96956.00;;;;5091510;28;20205;-81